Time;durP1;ratioP1;P1;durP2;ratioP2;P2;SDS_P1;SDS_P2;PMS_P1;PMS_P2;Temp;Humidity;BMP_temperature;BMP_pressure;BME280_temperature;BME280_humidity;BME280_pressure;Samples;Min_cycle;Max_cycle;Signal;HPM_P1;HPM_P2
2021/03/15 00:02:09;;;;;;;2.78;0.95;;;5.20;94.20;;;;;;5088177;28;20048;-88
2021/03/15 00:04:34;;;;;;;2.47;0.98;;;5.10;94.40;;;;;;5083757;28;20522;-88
2021/03/15 00:07:00;;;;;;;3.47;1.50;;;5.10;94.50;;;;;;5085942;28;20362;-89
2021/03/15 00:09:27;;;;;;;3.05;1.00;;;5.10;94.50;;;;;;5073815;28;20058;-89
2021/03/15 00:11:53;;;;;;;4.25;1.50;;;5.10;94.70;;;;;;5084551;28;20139;-88
2021/03/15 00:14:21;;;;;;;3.17;1.00;;;5.10;94.70;;;;;;5073569;28;20044;-87
2021/03/15 00:16:47;;;;;;;3.22;0.90;;;5.10;94.60;;;;;;5086045;28;20035;-88
2021/03/15 00:19:13;;;;;;;1.85;0.90;;;5.10;94.60;;;;;;5079581;28;20046;-88
2021/03/15 00:21:39;;;;;;;2.67;1.00;;;5.10;94.70;;;;;;5085116;28;20058;-88
2021/03/15 00:24:06;;;;;;;2.95;0.98;;;5.10;94.80;;;;;;5095675;27;20052;-88
2021/03/15 00:26:34;;;;;;;2.45;0.88;;;5.10;94.90;;;;;;5073456;28;20048;-88
2021/03/15 00:29:00;;;;;;;2.05;0.90;;;5.10;94.90;;;;;;5084949;28;20044;-89
2021/03/15 00:31:27;;;;;;;1.17;0.90;;;5.10;94.80;;;;;;5077924;28;20048;-87
2021/03/15 00:33:52;;;;;;;2.58;0.90;;;5.10;94.80;;;;;;5070753;28;20458;-88
2021/03/15 00:36:19;;;;;;;1.67;0.82;;;5.20;94.50;;;;;;5097258;27;20104;-89
2021/03/15 00:38:45;;;;;;;1.50;1.00;;;5.30;94.40;;;;;;5080457;28;20113;-89
2021/03/15 00:41:11;;;;;;;1.70;0.95;;;5.30;94.30;;;;;;5071281;28;20040;-87
2021/03/15 00:43:37;;;;;;;1.80;1.10;;;5.30;94.30;;;;;;5080564;28;20071;-88
2021/03/15 00:46:02;;;;;;;1.83;1.23;;;5.30;94.20;;;;;;5087164;28;20040;-88
2021/03/15 00:48:28;;;;;;;2.40;1.10;;;5.30;94.20;;;;;;5091823;28;20043;-89
2021/03/15 00:50:54;;;;;;;3.67;1.10;;;5.20;94.40;;;;;;5086122;28;20499;-88
2021/03/15 00:53:20;;;;;;;3.28;1.10;;;5.20;94.50;;;;;;5096776;28;20048;-88
2021/03/15 00:55:46;;;;;;;2.60;1.30;;;5.30;94.60;;;;;;5074672;28;20048;-88
2021/03/15 00:58:12;;;;;;;3.13;1.40;;;5.30;94.60;;;;;;5059956;28;20131;-89
2021/03/15 01:00:39;;;;;;;4.22;1.33;;;5.20;94.60;;;;;;5074952;28;20063;-89
2021/03/15 01:03:06;;;;;;;2.95;1.67;;;5.20;94.80;;;;;;5100949;28;20078;-89
2021/03/15 01:05:43;;;;;;;4.10;1.50;;;5.10;94.90;;;;;;5087988;28;20443;-89
2021/03/15 01:08:10;;;;;;;4.72;1.63;;;5.20;94.90;;;;;;5075716;28;20494;-89
2021/03/15 01:10:39;;;;;;;5.65;1.58;;;5.10;94.80;;;;;;5077323;28;20118;-89
2021/03/15 01:13:06;;;;;;;4.22;1.40;;;5.00;94.80;;;;;;5067184;28;20040;-89
2021/03/15 01:15:35;;;;;;;4.55;1.40;;;5.10;94.70;;;;;;5086250;28;20051;-89
2021/03/15 01:18:01;;;;;;;4.88;1.40;;;5.00;94.80;;;;;;5101438;28;20066;-90
2021/03/15 01:20:27;;;;;;;3.78;1.30;;;5.00;94.80;;;;;;5086024;28;20047;-89
2021/03/15 01:22:55;;;;;;;4.55;1.50;;;5.00;94.90;;;;;;5087233;28;20044;-89
2021/03/15 01:25:42;;;;;;;4.63;1.20;;;4.90;95.10;;;;;;5104145;28;21404;-89
2021/03/15 01:28:10;;;;;;;3.22;1.55;;;4.90;95.20;;;;;;5058368;28;20056;-90
2021/03/15 01:30:37;;;;;;;3.38;1.20;;;4.90;95.30;;;;;;5087623;28;20055;-90
2021/03/15 01:33:04;;;;;;;3.15;1.50;;;4.90;95.30;;;;;;5086771;28;20051;-89
2021/03/15 01:35:30;;;;;;;3.55;1.40;;;4.90;95.30;;;;;;5102085;28;20050;-89
2021/03/15 01:37:57;;;;;;;4.93;1.45;;;4.90;95.40;;;;;;5075712;28;20099;-88
2021/03/15 01:40:24;;;;;;;3.42;1.50;;;4.90;95.40;;;;;;5081326;28;20625;-89
2021/03/15 01:42:50;;;;;;;3.92;1.70;;;4.90;95.40;;;;;;5085142;27;20087;-89
2021/03/15 01:45:17;;;;;;;3.38;1.65;;;4.90;95.50;;;;;;5067387;28;20072;-89
2021/03/15 01:47:44;;;;;;;5.82;2.83;;;4.80;95.70;;;;;;5081560;28;20044;-89
2021/03/15 01:50:12;;;;;;;6.55;1.90;;;4.80;95.60;;;;;;5061698;28;20591;-89
2021/03/15 01:52:39;;;;;;;7.30;2.00;;;4.80;95.70;;;;;;5071593;28;20514;-90
2021/03/15 01:55:08;;;;;;;7.47;2.17;;;4.90;95.70;;;;;;5093901;28;20654;-89
2021/03/15 01:57:35;;;;;;;9.68;2.50;;;4.90;95.70;;;;;;5088888;28;20048;-89
2021/03/15 02:00:01;;;;;;;7.43;2.30;;;4.90;95.80;;;;;;5086126;28;20043;-86
2021/03/15 02:02:28;;;;;;;9.50;2.72;;;5.00;95.80;;;;;;5088788;28;20051;-89
2021/03/15 02:04:54;;;;;;;12.73;2.63;;;5.00;95.80;;;;;;5070236;28;20052;-89
2021/03/15 02:07:20;;;;;;;11.95;3.28;;;5.00;95.80;;;;;;5083643;28;20052;-89
2021/03/15 02:09:46;;;;;;;8.40;2.67;;;5.10;96.10;;;;;;5069555;28;20136;-90
2021/03/15 02:12:40;;;;;;;8.35;2.90;;;5.10;95.90;;;;;;5071733;28;20423;-90
2021/03/15 02:15:32;;;;;;;8.45;2.75;;;5.10;95.80;;;;;;5070648;28;20036;-89
2021/03/15 02:18:13;;;;;;;10.85;3.28;;;5.20;95.70;;;;;;5088379;28;20052;-88
2021/03/15 02:21:13;;;;;;;9.18;3.08;;;5.20;95.70;;;;;;5062102;28;20106;-89
2021/03/15 02:23:53;;;;;;;12.30;3.00;;;5.20;95.70;;;;;;5071443;28;20048;-90
2021/03/15 02:26:42;;;;;;;11.65;3.08;;;5.20;95.80;;;;;;5093419;28;20052;-90
2021/03/15 02:29:30;;;;;;;8.80;2.90;;;5.20;95.80;;;;;;5080464;28;20770;-89
2021/03/15 02:32:17;;;;;;;11.98;4.75;;;5.20;95.80;;;;;;5066654;28;20099;-88
2021/03/15 02:34:56;;;;;;;11.98;3.03;;;5.20;95.80;;;;;;5037607;28;20588;-89
2021/03/15 02:37:30;;;;;;;7.82;3.00;;;5.20;95.80;;;;;;5088003;28;20143;-89
2021/03/15 02:40:03;;;;;;;14.48;3.05;;;5.20;95.90;;;;;;5074626;28;20056;-89
2021/03/15 02:42:30;;;;;;;11.20;3.33;;;5.20;95.80;;;;;;5084757;28;20119;-88
2021/03/15 02:44:57;;;;;;;14.68;3.47;;;5.20;95.90;;;;;;5075218;28;20506;-89
2021/03/15 02:47:27;;;;;;;11.90;2.78;;;5.30;95.90;;;;;;5066526;28;20066;-89
2021/03/15 02:50:00;;;;;;;15.80;3.60;;;5.30;95.80;;;;;;5080767;28;20052;-89
2021/03/15 02:52:27;;;;;;;14.52;3.40;;;5.50;95.80;;;;;;5101812;28;20074;-88
2021/03/15 02:54:55;;;;;;;12.20;3.40;;;5.40;95.90;;;;;;5084015;28;20450;-89
2021/03/15 02:57:22;;;;;;;13.73;2.92;;;5.50;95.90;;;;;;5084364;28;21155;-90
2021/03/15 02:59:51;;;;;;;12.82;2.90;;;5.50;95.90;;;;;;5089426;28;20052;-89
2021/03/15 03:02:18;;;;;;;15.73;3.25;;;5.60;95.70;;;;;;5082729;28;20488;-89
2021/03/15 03:04:47;;;;;;;12.02;3.35;;;5.60;95.70;;;;;;5069266;28;20060;-89
2021/03/15 03:07:14;;;;;;;19.83;3.55;;;5.70;95.70;;;;;;5083903;28;20052;-89
2021/03/15 03:09:41;;;;;;;7.32;2.70;;;5.70;95.60;;;;;;5072062;28;20075;-89
2021/03/15 03:12:09;;;;;;;18.08;3.30;;;5.80;95.50;;;;;;5067395;28;20056;-87
2021/03/15 03:14:38;;;;;;;8.20;3.13;;;5.90;95.30;;;;;;5075128;28;20056;-88
2021/03/15 03:17:05;;;;;;;8.57;3.15;;;6.00;95.10;;;;;;5070010;28;20043;-89
2021/03/15 03:19:32;;;;;;;9.35;3.13;;;6.00;95.00;;;;;;5074216;28;20391;-87
2021/03/15 03:22:00;;;;;;;15.00;2.92;;;6.00;94.60;;;;;;5085434;28;20048;-90
2021/03/15 03:24:28;;;;;;;11.85;3.40;;;6.10;94.60;;;;;;5090470;28;20048;-89
2021/03/15 03:26:55;;;;;;;9.98;3.05;;;6.10;94.70;;;;;;5107238;28;20044;-89
2021/03/15 03:29:23;;;;;;;12.23;3.53;;;6.10;94.40;;;;;;5075402;28;20056;-88
2021/03/15 03:31:50;;;;;;;10.38;3.88;;;6.20;94.10;;;;;;5079749;28;20040;-90
2021/03/15 03:34:16;;;;;;;11.88;2.90;;;6.10;94.30;;;;;;5104457;28;20113;-90
2021/03/15 03:36:43;;;;;;;13.15;3.60;;;6.10;94.40;;;;;;5092469;28;20399;-89
2021/03/15 03:39:10;;;;;;;10.80;2.80;;;6.10;94.40;;;;;;5088198;28;20063;-89
2021/03/15 03:41:36;;;;;;;7.55;2.65;;;6.10;94.30;;;;;;5103753;28;20054;-89
2021/03/15 03:44:03;;;;;;;12.85;3.67;;;6.20;94.20;;;;;;5072129;28;20068;-87
2021/03/15 03:46:29;;;;;;;12.63;3.20;;;6.10;94.20;;;;;;5083738;28;20071;-90
2021/03/15 03:48:55;;;;;;;15.70;3.25;;;6.10;94.20;;;;;;5087283;28;20109;-88
2021/03/15 03:51:24;;;;;;;17.75;3.50;;;6.00;94.30;;;;;;5102209;28;20048;-89
2021/03/15 03:54:00;;;;;;;18.63;3.83;;;6.00;94.30;;;;;;5100653;28;20126;-89
2021/03/15 03:56:41;;;;;;;12.52;3.30;;;5.90;94.50;;;;;;5106358;28;20047;-89
2021/03/15 03:59:09;;;;;;;9.63;3.22;;;6.00;94.40;;;;;;5098217;28;20048;-88
2021/03/15 04:01:44;;;;;;;13.07;2.88;;;6.00;94.70;;;;;;5092297;28;20054;-88
2021/03/15 04:04:15;;;;;;;13.68;3.10;;;6.00;94.70;;;;;;5103294;28;20047;-88
2021/03/15 04:06:44;;;;;;;14.18;3.47;;;5.90;94.80;;;;;;5087371;28;20048;-89
2021/03/15 04:09:13;;;;;;;15.18;2.88;;;6.00;94.80;;;;;;5104767;27;20047;-89
2021/03/15 04:11:45;;;;;;;13.00;2.53;;;5.90;94.80;;;;;;5104528;28;20055;-89
2021/03/15 04:14:16;;;;;;;16.00;2.63;;;6.00;94.70;;;;;;5087601;28;20063;-89
2021/03/15 04:16:43;;;;;;;19.75;3.05;;;6.00;94.80;;;;;;5070081;28;20047;-89
2021/03/15 04:19:10;;;;;;;7.25;2.28;;;5.80;94.80;;;;;;5095506;28;20051;-89
2021/03/15 04:21:40;;;;;;;13.65;2.65;;;5.80;94.90;;;;;;5103296;28;20058;-90
2021/03/15 04:24:07;;;;;;;17.15;2.65;;;5.70;95.00;;;;;;5104306;28;20381;-89
2021/03/15 04:26:34;;;;;;;13.50;2.38;;;5.70;95.00;;;;;;5091796;28;20051;-90
2021/03/15 04:29:01;;;;;;;11.32;2.22;;;5.70;95.00;;;;;;5069844;28;20067;-89
2021/03/15 04:31:28;;;;;;;15.13;2.45;;;5.60;95.10;;;;;;5071619;28;20060;-88
2021/03/15 04:33:55;;;;;;;11.52;2.55;;;5.70;95.00;;;;;;5086561;28;20571;-89
2021/03/15 04:36:22;;;;;;;14.50;2.25;;;5.60;95.30;;;;;;5090908;27;20048;-89
2021/03/15 04:38:49;;;;;;;20.95;2.60;;;5.50;95.00;;;;;;5086202;28;20158;-89
2021/03/15 04:41:17;;;;;;;13.45;2.70;;;5.50;95.00;;;;;;5081006;28;20051;-88
2021/03/15 04:43:46;;;;;;;17.80;2.90;;;5.50;95.10;;;;;;5086347;28;20048;-87
2021/03/15 04:46:12;;;;;;;10.98;2.35;;;5.40;95.00;;;;;;5084950;28;20617;-88
2021/03/15 04:48:40;;;;;;;12.73;2.92;;;5.40;95.10;;;;;;5085542;28;20047;-88
2021/03/15 04:51:06;;;;;;;17.20;2.42;;;5.40;95.10;;;;;;5098367;27;20160;-88
2021/03/15 04:53:37;;;;;;;16.23;3.35;;;5.40;95.10;;;;;;5089779;28;20044;-88
2021/03/15 04:56:09;;;;;;;19.05;3.00;;;5.40;94.90;;;;;;5099239;28;20044;-89
2021/03/15 04:58:39;;;;;;;14.85;2.50;;;5.30;94.90;;;;;;5077418;28;20047;-88
2021/03/15 05:01:07;;;;;;;17.90;2.97;;;5.30;94.90;;;;;;5075501;28;20044;-88
2021/03/15 05:03:35;;;;;;;14.05;3.28;;;5.30;94.80;;;;;;5066687;28;20051;-85
2021/03/15 05:06:01;;;;;;;13.75;3.22;;;5.40;94.70;;;;;;5056997;28;20044;-87
2021/03/15 05:08:32;;;;;;;23.05;3.28;;;5.30;94.60;;;;;;5070793;28;20107;-87
2021/03/15 05:11:00;;;;;;;11.85;2.42;;;5.30;94.40;;;;;;5084246;28;20058;-88
2021/03/15 05:13:27;;;;;;;13.02;2.40;;;5.30;94.30;;;;;;5084404;28;20051;-88
2021/03/15 05:15:54;;;;;;;13.98;2.47;;;5.30;94.10;;;;;;5080756;28;20056;-89
2021/03/15 05:18:22;;;;;;;20.38;3.38;;;5.40;93.90;;;;;;5072362;28;20041;-88
2021/03/15 05:20:49;;;;;;;18.05;2.55;;;5.40;93.70;;;;;;5093127;28;20058;-88
2021/03/15 05:23:15;;;;;;;12.38;2.78;;;5.40;93.70;;;;;;5081036;28;20369;-89
2021/03/15 05:25:46;;;;;;;29.95;4.25;;;5.40;93.50;;;;;;5086046;28;20051;-89
2021/03/15 05:28:14;;;;;;;14.25;2.88;;;5.50;93.20;;;;;;5079995;28;20175;-89
2021/03/15 05:30:41;;;;;;;18.95;3.10;;;5.50;93.10;;;;;;5073107;28;20067;-89
2021/03/15 05:33:12;;;;;;;11.40;2.20;;;5.40;93.10;;;;;;5065162;28;20087;-89
2021/03/15 05:35:40;;;;;;;17.95;3.22;;;5.40;93.10;;;;;;5075239;28;20499;-90
2021/03/15 05:38:06;;;;;;;17.25;2.90;;;5.40;93.20;;;;;;5082972;27;20039;-88
2021/03/15 05:40:33;;;;;;;14.95;2.95;;;5.40;93.20;;;;;;5081878;28;20113;-87
2021/03/15 05:43:02;;;;;;;11.32;2.15;;;5.40;93.20;;;;;;5071880;28;20052;-89
2021/03/15 05:45:39;;;;;;;16.13;3.00;;;5.30;93.20;;;;;;5102413;27;20060;-88
2021/03/15 05:48:30;;;;;;;12.90;2.78;;;5.40;93.20;;;;;;5079096;28;20143;-88
2021/03/15 05:51:29;;;;;;;18.05;3.15;;;5.40;93.20;;;;;;5086344;28;20096;-90
2021/03/15 05:54:28;;;;;;;11.48;2.95;;;5.30;93.30;;;;;;4986042;28;20105;-90
2021/03/15 05:57:22;;;;;;;16.80;3.17;;;5.40;93.10;;;;;;5080345;28;20135;-89
2021/03/15 06:00:16;;;;;;;11.15;2.33;;;5.40;93.60;;;;;;5050279;28;20151;-89
2021/03/15 06:03:18;;;;;;;14.52;2.60;;;5.50;93.40;;;;;;5061689;28;20145;-89
2021/03/15 06:05:46;;;;;;;16.58;3.28;;;5.50;93.00;;;;;;5057028;28;20056;-89
2021/03/15 06:08:21;;;;;;;18.95;3.35;;;5.50;93.00;;;;;;5082009;28;20043;-88
2021/03/15 06:11:09;;;;;;;17.35;2.88;;;5.50;93.00;;;;;;5093582;28;20057;-88
2021/03/15 06:13:36;;;;;;;15.80;2.40;;;5.60;92.90;;;;;;5087641;28;20475;-89
2021/03/15 06:16:04;;;;;;;15.23;2.88;;;5.70;92.70;;;;;;5071031;28;20063;-86
2021/03/15 06:18:30;;;;;;;22.23;4.45;;;5.80;92.60;;;;;;5087580;28;20099;-89
2021/03/15 06:20:57;;;;;;;10.48;2.65;;;5.80;92.70;;;;;;5080092;28;20093;-89
2021/03/15 06:23:24;;;;;;;20.05;3.53;;;5.90;92.30;;;;;;5068070;28;20048;-89
2021/03/15 06:26:13;;;;;;;15.25;3.83;;;5.90;92.50;;;;;;5067286;28;20082;-88
2021/03/15 06:28:42;;;;;;;16.27;3.47;;;5.90;92.20;;;;;;5061410;28;20044;-89
2021/03/15 06:31:10;;;;;;;15.40;3.83;;;6.00;92.20;;;;;;5064061;28;20459;-90
2021/03/15 06:33:36;;;;;;;16.10;2.63;;;6.00;92.20;;;;;;5091005;28;20048;-89
2021/03/15 06:36:04;;;;;;;18.05;3.83;;;6.10;91.90;;;;;;5101558;28;20086;-88
2021/03/15 06:38:34;;;;;;;9.20;2.20;;;6.10;91.60;;;;;;5080363;28;20071;-90
2021/03/15 06:41:06;;;;;;;13.93;3.03;;;6.20;91.60;;;;;;5072663;28;20110;-90
2021/03/15 06:44:32;;;;;;;19.67;3.72;;;6.10;91.70;;;;;;5086887;28;20051;-89
2021/03/15 06:47:17;;;;;;;12.05;2.75;;;6.10;91.90;;;;;;5061745;28;20043;-89
2021/03/15 06:49:43;;;;;;;11.93;3.13;;;6.30;91.30;;;;;;5094819;28;20052;-88
2021/03/15 06:52:10;;;;;;;14.32;3.08;;;6.30;91.30;;;;;;5092138;28;20050;-88
2021/03/15 06:54:36;;;;;;;19.55;3.92;;;6.40;90.90;;;;;;5082103;28;20044;-88
2021/03/15 06:57:21;;;;;;;10.85;2.20;;;6.40;91.10;;;;;;5094787;28;20360;-86
2021/03/15 06:59:52;;;;;;;8.52;1.60;;;6.40;91.30;;;;;;5081961;28;20551;-89
2021/03/15 07:02:24;;;;;;;18.35;3.00;;;6.40;91.50;;;;;;5097679;28;20772;-90
2021/03/15 07:04:50;;;;;;;18.60;2.90;;;6.30;91.90;;;;;;5095553;28;20373;-90
2021/03/15 07:07:24;;;;;;;10.60;1.85;;;6.30;91.90;;;;;;5072791;28;20131;-90
2021/03/15 07:09:51;;;;;;;11.82;2.67;;;6.50;91.40;;;;;;5098131;28;20074;-90
2021/03/15 07:12:20;;;;;;;14.48;2.60;;;6.50;91.40;;;;;;5092965;28;20352;-89
2021/03/15 07:14:48;;;;;;;12.80;2.60;;;6.50;91.50;;;;;;5094955;28;20047;-90
2021/03/15 07:17:22;;;;;;;11.50;2.85;;;6.50;91.40;;;;;;5096767;28;20063;-90
2021/03/15 07:19:48;;;;;;;16.58;2.80;;;6.50;91.30;;;;;;5096484;28;20054;-90
2021/03/15 07:22:26;;;;;;;11.45;2.92;;;6.50;91.40;;;;;;5091119;28;20055;-88
2021/03/15 07:25:06;;;;;;;12.10;3.25;;;6.60;91.20;;;;;;5083925;28;20619;-90
2021/03/15 07:27:33;;;;;;;11.40;2.05;;;6.60;91.20;;;;;;5079216;28;20059;-89
2021/03/15 07:30:37;;;;;;;14.27;2.45;;;6.70;91.00;;;;;;5078983;28;20047;-90
2021/03/15 07:33:05;;;;;;;14.25;3.03;;;6.60;91.30;;;;;;5071884;28;20056;-90
2021/03/15 07:35:35;;;;;;;11.85;2.15;;;6.60;91.50;;;;;;5074300;28;20048;-90
2021/03/15 07:38:02;;;;;;;13.15;3.28;;;6.70;91.30;;;;;;5088323;28;20170;-91
2021/03/15 07:40:43;;;;;;;16.73;3.85;;;6.70;91.30;;;;;;5086983;28;20044;-90
2021/03/15 07:43:15;;;;;;;11.43;2.50;;;6.60;91.60;;;;;;5053864;28;20051;-91
2021/03/15 07:45:48;;;;;;;16.92;3.03;;;6.70;91.50;;;;;;5087719;28;20071;-91
2021/03/15 07:48:22;;;;;;;10.05;2.40;;;6.80;91.30;;;;;;5081681;28;20048;-89
2021/03/15 07:50:55;;;;;;;20.50;3.75;;;6.80;91.20;;;;;;5073297;28;20060;-90
2021/03/15 07:53:43;;;;;;;8.07;1.60;;;6.70;91.50;;;;;;5098539;28;20059;-90
2021/03/15 07:56:18;;;;;;;10.63;2.45;;;6.90;91.20;;;;;;5086021;28;20495;-89
2021/03/15 07:58:44;;;;;;;14.30;2.38;;;6.90;91.50;;;;;;5090374;28;20373;-88
2021/03/15 08:01:10;;;;;;;15.90;2.72;;;6.80;91.70;;;;;;5104996;28;20053;-91
2021/03/15 08:03:40;;;;;;;19.42;3.55;;;6.70;92.20;;;;;;5087309;28;20052;-91
2021/03/15 08:06:11;;;;;;;18.33;3.22;;;6.60;92.60;;;;;;5075695;27;20051;-91
2021/03/15 08:08:39;;;;;;;20.35;3.78;;;6.70;92.80;;;;;;5092169;28;20052;-92
2021/03/15 08:11:06;;;;;;;10.20;3.03;;;6.60;92.90;;;;;;5078359;28;20048;-90
2021/03/15 08:13:47;;;;;;;9.65;2.03;;;6.60;93.00;;;;;;5107140;28;20119;-89
2021/03/15 08:16:15;;;;;;;18.45;3.42;;;6.70;92.40;;;;;;5107764;28;20501;-91
2021/03/15 08:18:44;;;;;;;15.80;2.85;;;6.80;92.20;;;;;;5103729;28;20056;-88
2021/03/15 08:21:16;;;;;;;14.55;2.90;;;7.00;91.70;;;;;;5094294;28;20068;-91
2021/03/15 08:23:44;;;;;;;15.77;2.88;;;7.10;91.90;;;;;;5099521;28;20040;-91
2021/03/15 08:26:13;;;;;;;14.43;3.47;;;7.20;91.80;;;;;;5073821;28;20141;-91
2021/03/15 08:28:41;;;;;;;10.35;2.80;;;7.30;91.60;;;;;;5082489;28;20048;-91
2021/03/15 08:31:16;;;;;;;6.82;1.65;;;7.30;91.30;;;;;;5091151;27;20059;-91
2021/03/15 08:33:43;;;;;;;12.88;2.60;;;7.30;90.40;;;;;;5072709;28;20039;-90
2021/03/15 08:36:10;;;;;;;12.38;2.40;;;7.10;91.10;;;;;;5088401;28;20043;-90
2021/03/15 08:38:36;;;;;;;18.27;3.28;;;7.10;91.50;;;;;;5087058;28;20071;-90
2021/03/15 08:41:09;;;;;;;14.45;2.55;;;7.00;92.20;;;;;;5099202;28;20127;-91
2021/03/15 08:43:46;;;;;;;11.75;2.47;;;7.00;92.50;;;;;;5069731;28;20107;-89
2021/03/15 08:46:13;;;;;;;13.95;2.75;;;6.90;91.80;;;;;;5077207;28;20048;-87
2021/03/15 08:48:39;;;;;;;2.55;1.17;;;6.60;92.80;;;;;;5073660;28;20048;-91
2021/03/15 08:51:07;;;;;;;7.30;1.58;;;6.60;92.10;;;;;;5084378;28;20055;-92
2021/03/15 08:53:44;;;;;;;7.35;2.25;;;6.40;92.40;;;;;;5083272;28;20399;-92
2021/03/15 08:56:32;;;;;;;6.43;1.75;;;6.30;92.80;;;;;;5100374;28;20036;-90
2021/03/15 08:59:03;;;;;;;20.02;4.18;;;6.30;93.10;;;;;;5064016;28;20044;-90
2021/03/15 09:01:50;;;;;;;17.10;3.08;;;6.40;93.30;;;;;;5090299;28;20071;-89
2021/03/15 09:04:33;;;;;;;9.80;2.22;;;6.50;93.80;;;;;;5069209;28;20139;-90
2021/03/15 09:07:03;;;;;;;22.10;3.60;;;6.60;94.00;;;;;;5066187;27;20127;-90
2021/03/15 09:09:30;;;;;;;11.27;2.33;;;6.70;93.50;;;;;;5063407;28;20049;-88
2021/03/15 09:12:03;;;;;;;13.43;2.88;;;6.90;93.00;;;;;;5100353;28;20055;-89
2021/03/15 09:14:37;;;;;;;14.88;3.38;;;7.00;92.80;;;;;;5091433;28;20055;-88
2021/03/15 09:17:14;;;;;;;11.20;2.78;;;7.10;92.40;;;;;;5075729;28;20093;-88
2021/03/15 09:19:43;;;;;;;12.60;2.33;;;7.10;92.70;;;;;;5080591;28;20054;-90
2021/03/15 09:22:15;;;;;;;15.70;3.25;;;7.30;92.00;;;;;;5084328;28;20045;-88
2021/03/15 09:24:46;;;;;;;11.75;2.10;;;7.30;92.10;;;;;;5070315;28;20063;-89
2021/03/15 09:27:27;;;;;;;10.05;2.33;;;7.40;91.50;;;;;;5099321;28;20049;-90
2021/03/15 09:30:22;;;;;;;12.05;3.70;;;7.40;91.50;;;;;;5083115;27;20067;-88
2021/03/15 09:32:49;;;;;;;13.82;2.90;;;7.40;91.60;;;;;;5053706;28;20421;-89
2021/03/15 09:35:36;;;;;;;20.33;2.53;;;7.40;92.00;;;;;;5064535;28;20551;-89
2021/03/15 09:38:03;;;;;;;26.35;2.75;;;7.40;91.70;;;;;;5090376;28;20080;-88
2021/03/15 09:40:41;;;;;;;13.00;3.40;;;7.50;91.20;;;;;;5084241;28;20047;-88
2021/03/15 09:43:08;;;;;;;13.80;3.03;;;7.50;90.70;;;;;;5085667;28;20093;-88
2021/03/15 09:45:39;;;;;;;12.50;2.80;;;7.50;90.90;;;;;;5102892;28;20048;-88
2021/03/15 09:48:17;;;;;;;12.85;2.88;;;7.60;90.70;;;;;;5093099;28;20051;-89
2021/03/15 09:50:51;;;;;;;20.13;3.30;;;7.60;90.20;;;;;;5085608;28;20043;-89
2021/03/15 09:53:18;;;;;;;11.02;3.15;;;7.50;91.00;;;;;;5104825;28;20042;-88
2021/03/15 09:55:44;;;;;;;14.13;2.85;;;7.60;90.90;;;;;;5100129;28;20047;-86
2021/03/15 09:58:16;;;;;;;16.42;2.65;;;7.70;90.50;;;;;;5100258;28;20078;-88
2021/03/15 10:00:46;;;;;;;17.23;4.15;;;7.70;91.00;;;;;;5104266;28;20096;-88
2021/03/15 10:03:22;;;;;;;10.95;2.58;;;7.90;90.20;;;;;;5090382;28;20396;-88
2021/03/15 10:05:55;;;;;;;15.88;3.50;;;7.80;90.00;;;;;;5092723;28;20092;-89
2021/03/15 10:08:22;;;;;;;12.90;3.10;;;7.90;89.80;;;;;;5087623;28;20075;-88
2021/03/15 10:10:49;;;;;;;11.05;2.38;;;7.90;89.40;;;;;;5088802;28;20598;-87
2021/03/15 10:13:15;;;;;;;18.55;3.30;;;8.00;89.30;;;;;;5084217;28;20667;-88
2021/03/15 10:15:41;;;;;;;14.65;3.00;;;8.10;89.90;;;;;;5095089;27;20084;-89
2021/03/15 10:18:07;;;;;;;13.75;2.30;;;8.30;88.90;;;;;;5089112;28;20043;-89
2021/03/15 10:20:38;;;;;;;15.57;2.97;;;8.40;85.90;;;;;;5101166;28;20048;-88
2021/03/15 10:23:13;;;;;;;6.40;2.35;;;8.40;86.30;;;;;;5083210;28;20085;-89
2021/03/15 10:25:52;;;;;;;7.47;2.25;;;8.50;85.30;;;;;;5090925;28;20055;-87
2021/03/15 10:28:18;;;;;;;7.55;2.15;;;8.50;83.70;;;;;;5063935;28;20055;-88
2021/03/15 10:30:44;;;;;;;8.13;2.13;;;8.50;82.80;;;;;;5096968;27;20044;-88
2021/03/15 10:33:10;;;;;;;9.20;2.08;;;8.40;83.90;;;;;;5089409;28;20056;-88
2021/03/15 10:35:39;;;;;;;9.10;2.15;;;8.50;83.20;;;;;;5082136;28;20047;-88
2021/03/15 10:38:05;;;;;;;12.23;2.47;;;8.40;83.40;;;;;;5077871;28;20051;-90
2021/03/15 10:40:32;;;;;;;11.00;2.65;;;8.50;85.00;;;;;;5101710;28;20043;-88
2021/03/15 10:42:59;;;;;;;7.97;2.05;;;8.60;83.70;;;;;;5084441;28;20047;-88
2021/03/15 10:45:26;;;;;;;10.35;2.13;;;8.60;84.00;;;;;;5089940;28;20043;-87
2021/03/15 10:48:02;;;;;;;10.70;2.50;;;8.40;85.20;;;;;;5076135;28;20048;-89
2021/03/15 10:50:33;;;;;;;10.02;2.50;;;8.50;84.90;;;;;;5102776;28;20055;-89
2021/03/15 10:53:11;;;;;;;8.52;1.98;;;8.60;83.50;;;;;;5087914;28;20056;-86
2021/03/15 10:55:37;;;;;;;18.17;2.83;;;8.50;83.30;;;;;;5077785;28;20054;-90
2021/03/15 10:58:09;;;;;;;13.02;2.95;;;8.40;85.50;;;;;;5061490;28;20044;-87
2021/03/15 11:00:46;;;;;;;12.00;2.67;;;8.50;84.70;;;;;;5090836;28;20720;-88
2021/03/15 11:03:30;;;;;;;14.27;2.95;;;8.40;85.70;;;;;;5094260;28;20037;-93
2021/03/15 11:06:06;;;;;;;18.38;3.05;;;8.40;85.10;;;;;;5074803;28;20048;-89
2021/03/15 11:08:32;;;;;;;10.13;2.53;;;8.50;85.70;;;;;;5097827;28;20075;-89
2021/03/15 11:11:23;;;;;;;30.38;3.50;;;8.70;83.90;;;;;;5092992;28;20051;-88
2021/03/15 11:13:51;;;;;;;17.58;3.03;;;8.60;85.00;;;;;;5059554;28;20044;-89
2021/03/15 11:16:25;;;;;;;18.77;4.25;;;8.50;85.90;;;;;;5070848;28;20044;-88
2021/03/15 11:19:05;;;;;;;12.05;2.22;;;8.50;85.90;;;;;;5084987;28;20481;-89
2021/03/15 11:21:36;;;;;;;9.88;2.85;;;8.50;85.80;;;;;;5069524;28;20060;-88
2021/03/15 11:24:04;;;;;;;9.68;2.33;;;8.60;85.30;;;;;;5078607;28;20052;-89
2021/03/15 11:26:49;;;;;;;14.63;3.50;;;8.70;85.70;;;;;;5088592;28;20101;-89
2021/03/15 11:29:15;;;;;;;10.88;2.17;;;8.70;83.90;;;;;;5062596;28;20051;-89
2021/03/15 11:31:52;;;;;;;14.38;2.58;;;8.70;83.40;;;;;;5075938;28;20055;-87
2021/03/15 11:34:23;;;;;;;14.75;2.88;;;8.60;84.90;;;;;;5070224;28;20218;-89
2021/03/15 11:36:49;;;;;;;13.63;2.67;;;8.50;85.80;;;;;;5088439;28;20064;-91
2021/03/15 11:39:16;;;;;;;10.00;2.80;;;8.50;84.70;;;;;;5081506;28;20051;-89
2021/03/15 11:41:43;;;;;;;6.80;2.33;;;8.60;84.60;;;;;;5086708;28;20044;-92
2021/03/15 11:44:09;;;;;;;10.07;2.65;;;8.60;85.00;;;;;;5079176;28;20531;-90
2021/03/15 11:46:38;;;;;;;11.23;1.85;;;8.70;83.90;;;;;;5078486;28;20036;-91
2021/03/15 11:49:08;;;;;;;12.98;2.85;;;8.80;84.90;;;;;;5099606;28;20054;-91
2021/03/15 11:51:41;;;;;;;10.18;2.33;;;8.80;82.60;;;;;;5010668;28;20067;-94
2021/03/15 11:54:22;;;;;;;11.35;2.25;;;8.60;83.90;;;;;;5043055;27;20787;-89
2021/03/15 11:56:48;;;;;;;15.02;3.13;;;8.70;83.70;;;;;;4974905;28;20091;-91
2021/03/15 11:59:14;;;;;;;12.77;2.78;;;8.60;84.30;;;;;;5045256;28;20096;-93
2021/03/15 12:01:39;;;;;;;10.73;2.78;;;8.60;85.50;;;;;;5082598;28;20051;-91
2021/03/15 12:04:05;;;;;;;11.13;2.45;;;8.70;84.30;;;;;;5069726;28;20143;-92
2021/03/15 12:06:31;;;;;;;11.00;3.13;;;8.80;81.70;;;;;;5076976;28;20054;-91
2021/03/15 12:08:57;;;;;;;12.80;3.35;;;8.80;82.70;;;;;;5036091;28;20476;-90
2021/03/15 12:11:23;;;;;;;14.23;2.67;;;8.80;83.40;;;;;;5067210;28;20061;-88
2021/03/15 12:13:49;;;;;;;11.13;2.53;;;8.80;83.50;;;;;;5081267;28;20116;-89
2021/03/15 12:16:14;;;;;;;8.45;2.50;;;8.90;83.20;;;;;;5086321;28;20070;-91
2021/03/15 12:18:40;;;;;;;13.02;2.22;;;8.90;80.40;;;;;;5074223;28;20043;-91
2021/03/15 12:21:06;;;;;;;10.90;2.67;;;8.80;82.10;;;;;;5073281;28;20048;-88
2021/03/15 12:23:32;;;;;;;9.00;1.88;;;8.80;83.30;;;;;;5042193;28;20131;-86
2021/03/15 12:25:58;;;;;;;14.05;3.75;;;8.90;82.90;;;;;;5045202;28;20061;-86
2021/03/15 12:28:24;;;;;;;13.45;3.17;;;8.90;82.50;;;;;;5077474;28;20044;-88
2021/03/15 12:30:50;;;;;;;10.35;2.17;;;8.90;83.20;;;;;;5085841;28;20036;-87
2021/03/15 12:33:16;;;;;;;14.45;2.47;;;9.00;82.20;;;;;;5087825;28;20054;-90
2021/03/15 12:35:42;;;;;;;16.10;2.65;;;8.90;83.50;;;;;;5090245;28;20055;-88
2021/03/15 12:38:07;;;;;;;12.68;2.83;;;8.90;83.80;;;;;;5078987;28;20474;-84
2021/03/15 12:40:33;;;;;;;17.85;3.60;;;8.80;85.40;;;;;;5089171;28;20487;-86
2021/03/15 12:42:59;;;;;;;10.13;2.50;;;8.90;82.90;;;;;;5079564;28;20076;-87
2021/03/15 12:45:25;;;;;;;14.13;2.65;;;8.80;83.30;;;;;;5072750;27;20135;-87
2021/03/15 12:47:51;;;;;;;7.88;2.35;;;8.60;85.00;;;;;;5077078;28;20048;-88
2021/03/15 12:50:17;;;;;;;9.35;2.20;;;8.70;84.30;;;;;;5072783;28;20460;-88
2021/03/15 12:52:43;;;;;;;12.75;2.72;;;8.80;82.00;;;;;;5071697;28;20056;-88
2021/03/15 12:55:09;;;;;;;13.02;2.45;;;8.80;82.30;;;;;;5070277;28;20058;-86
2021/03/15 12:57:36;;;;;;;17.27;3.92;;;8.80;83.90;;;;;;5064577;28;20052;-85
2021/03/15 13:00:02;;;;;;;16.90;3.10;;;8.70;84.20;;;;;;5079132;28;20503;-89
2021/03/15 13:02:28;;;;;;;11.45;2.58;;;8.80;84.40;;;;;;5081149;28;20510;-90
2021/03/15 13:04:54;;;;;;;16.40;3.38;;;8.80;83.40;;;;;;5064897;28;20045;-87
2021/03/15 13:07:20;;;;;;;9.90;2.33;;;8.80;84.20;;;;;;5075896;28;20135;-84
2021/03/15 13:09:45;;;;;;;14.13;2.65;;;8.80;81.80;;;;;;5082331;28;20129;-87